sensor_id;sensor_type;location;lat;lon;timestamp;P1;durP1;ratioP1;P2;durP2;ratioP2
22030;SDS011;11179;52.106;21.024;2023-05-15T00:01:41;9.43;;;4.00;;
22030;SDS011;11179;52.106;21.024;2023-05-15T00:04:07;8.40;;;4.23;;
22030;SDS011;11179;52.106;21.024;2023-05-15T00:06:32;9.30;;;4.07;;
22030;SDS011;11179;52.106;21.024;2023-05-15T00:08:58;11.93;;;4.40;;
22030;SDS011;11179;52.106;21.024;2023-05-15T00:11:23;12.83;;;4.40;;
22030;SDS011;11179;52.106;21.024;2023-05-15T00:13:51;11.80;;;4.40;;
22030;SDS011;11179;52.106;21.024;2023-05-15T00:16:17;10.73;;;4.10;;
22030;SDS011;11179;52.106;21.024;2023-05-15T00:18:42;8.50;;;4.40;;
22030;SDS011;11179;52.106;21.024;2023-05-15T00:21:08;8.97;;;4.30;;
22030;SDS011;11179;52.106;21.024;2023-05-15T00:23:33;8.57;;;4.27;;
22030;SDS011;11179;52.106;21.024;2023-05-15T00:25:58;8.90;;;3.83;;
22030;SDS011;11179;52.106;21.024;2023-05-15T00:28:24;8.27;;;3.70;;
22030;SDS011;11179;52.106;21.024;2023-05-15T00:30:49;9.40;;;4.10;;
22030;SDS011;11179;52.106;21.024;2023-05-15T00:33:15;9.90;;;3.67;;
22030;SDS011;11179;52.106;21.024;2023-05-15T00:35:41;9.40;;;4.03;;
22030;SDS011;11179;52.106;21.024;2023-05-15T00:38:06;8.20;;;3.80;;
22030;SDS011;11179;52.106;21.024;2023-05-15T00:40:31;9.53;;;4.00;;
22030;SDS011;11179;52.106;21.024;2023-05-15T00:42:58;19.47;;;4.17;;
22030;SDS011;11179;52.106;21.024;2023-05-15T00:45:24;8.37;;;3.90;;
22030;SDS011;11179;52.106;21.024;2023-05-15T00:47:50;9.70;;;4.13;;
22030;SDS011;11179;52.106;21.024;2023-05-15T00:50:18;8.33;;;4.00;;
22030;SDS011;11179;52.106;21.024;2023-05-15T00:52:43;10.50;;;3.90;;
22030;SDS011;11179;52.106;21.024;2023-05-15T00:55:09;9.57;;;4.90;;
22030;SDS011;11179;52.106;21.024;2023-05-15T00:57:35;8.40;;;3.80;;
22030;SDS011;11179;52.106;21.024;2023-05-15T01:00:02;8.13;;;3.67;;
22030;SDS011;11179;52.106;21.024;2023-05-15T01:02:31;8.23;;;4.13;;
22030;SDS011;11179;52.106;21.024;2023-05-15T01:04:56;8.37;;;4.47;;
22030;SDS011;11179;52.106;21.024;2023-05-15T01:07:21;8.00;;;3.57;;
22030;SDS011;11179;52.106;21.024;2023-05-15T01:09:47;8.07;;;3.87;;
22030;SDS011;11179;52.106;21.024;2023-05-15T01:12:14;6.87;;;3.70;;
22030;SDS011;11179;52.106;21.024;2023-05-15T01:14:40;12.60;;;4.13;;
22030;SDS011;11179;52.106;21.024;2023-05-15T01:17:06;8.80;;;3.67;;
22030;SDS011;11179;52.106;21.024;2023-05-15T01:19:47;9.53;;;3.70;;
22030;SDS011;11179;52.106;21.024;2023-05-15T01:22:20;8.67;;;3.47;;
22030;SDS011;11179;52.106;21.024;2023-05-15T01:25:12;8.50;;;3.67;;
22030;SDS011;11179;52.106;21.024;2023-05-15T01:28:05;10.03;;;3.93;;
22030;SDS011;11179;52.106;21.024;2023-05-15T01:30:36;9.93;;;4.10;;
22030;SDS011;11179;52.106;21.024;2023-05-15T01:33:10;9.43;;;3.50;;
22030;SDS011;11179;52.106;21.024;2023-05-15T01:35:50;8.87;;;4.23;;
22030;SDS011;11179;52.106;21.024;2023-05-15T01:40:55;14.00;;;4.43;;
22030;SDS011;11179;52.106;21.024;2023-05-15T01:43:27;10.50;;;3.97;;
22030;SDS011;11179;52.106;21.024;2023-05-15T01:45:55;7.40;;;4.10;;
22030;SDS011;11179;52.106;21.024;2023-05-15T01:48:22;11.27;;;4.20;;
22030;SDS011;11179;52.106;21.024;2023-05-15T01:50:50;9.33;;;3.40;;
22030;SDS011;11179;52.106;21.024;2023-05-15T01:53:19;6.87;;;3.87;;
22030;SDS011;11179;52.106;21.024;2023-05-15T01:55:44;10.13;;;3.70;;
22030;SDS011;11179;52.106;21.024;2023-05-15T01:58:12;8.37;;;3.90;;
22030;SDS011;11179;52.106;21.024;2023-05-15T02:00:38;9.63;;;3.70;;
22030;SDS011;11179;52.106;21.024;2023-05-15T02:03:05;6.20;;;3.60;;
22030;SDS011;11179;52.106;21.024;2023-05-15T02:05:30;7.53;;;3.80;;
22030;SDS011;11179;52.106;21.024;2023-05-15T02:07:58;6.23;;;3.73;;
22030;SDS011;11179;52.106;21.024;2023-05-15T02:10:26;7.40;;;4.37;;
22030;SDS011;11179;52.106;21.024;2023-05-15T02:12:52;10.80;;;4.07;;
22030;SDS011;11179;52.106;21.024;2023-05-15T02:15:19;8.97;;;4.03;;
22030;SDS011;11179;52.106;21.024;2023-05-15T02:17:45;8.60;;;4.40;;
22030;SDS011;11179;52.106;21.024;2023-05-15T02:20:10;10.93;;;4.10;;
22030;SDS011;11179;52.106;21.024;2023-05-15T02:22:36;10.30;;;3.60;;
22030;SDS011;11179;52.106;21.024;2023-05-15T02:25:01;8.00;;;3.73;;
22030;SDS011;11179;52.106;21.024;2023-05-15T02:27:27;7.27;;;3.60;;
22030;SDS011;11179;52.106;21.024;2023-05-15T02:35:42;6.87;;;3.77;;
22030;SDS011;11179;52.106;21.024;2023-05-15T02:38:12;7.40;;;3.60;;
22030;SDS011;11179;52.106;21.024;2023-05-15T02:40:41;7.13;;;3.70;;
22030;SDS011;11179;52.106;21.024;2023-05-15T02:43:08;13.73;;;4.20;;
22030;SDS011;11179;52.106;21.024;2023-05-15T02:45:34;9.77;;;3.93;;
22030;SDS011;11179;52.106;21.024;2023-05-15T02:48:01;9.47;;;3.63;;
22030;SDS011;11179;52.106;21.024;2023-05-15T02:50:27;13.90;;;4.00;;
22030;SDS011;11179;52.106;21.024;2023-05-15T02:53:05;13.43;;;4.17;;
22030;SDS011;11179;52.106;21.024;2023-05-15T02:55:32;9.63;;;4.07;;
22030;SDS011;11179;52.106;21.024;2023-05-15T02:57:58;7.13;;;3.50;;
22030;SDS011;11179;52.106;21.024;2023-05-15T03:00:23;9.70;;;3.70;;
22030;SDS011;11179;52.106;21.024;2023-05-15T03:02:48;12.30;;;4.00;;
22030;SDS011;11179;52.106;21.024;2023-05-15T03:05:14;9.67;;;4.40;;
22030;SDS011;11179;52.106;21.024;2023-05-15T03:07:39;6.80;;;3.63;;
22030;SDS011;11179;52.106;21.024;2023-05-15T03:10:07;7.77;;;4.30;;
22030;SDS011;11179;52.106;21.024;2023-05-15T03:12:33;8.63;;;4.20;;
22030;SDS011;11179;52.106;21.024;2023-05-15T03:14:58;7.33;;;4.30;;
22030;SDS011;11179;52.106;21.024;2023-05-15T03:17:24;7.00;;;3.87;;
22030;SDS011;11179;52.106;21.024;2023-05-15T03:19:49;6.87;;;3.60;;
22030;SDS011;11179;52.106;21.024;2023-05-15T03:22:14;8.57;;;4.00;;
22030;SDS011;11179;52.106;21.024;2023-05-15T03:24:40;8.77;;;3.90;;
22030;SDS011;11179;52.106;21.024;2023-05-15T03:27:05;8.37;;;3.53;;
22030;SDS011;11179;52.106;21.024;2023-05-15T03:29:30;9.00;;;4.27;;
22030;SDS011;11179;52.106;21.024;2023-05-15T03:31:56;8.83;;;3.73;;
22030;SDS011;11179;52.106;21.024;2023-05-15T03:34:21;8.83;;;3.40;;
22030;SDS011;11179;52.106;21.024;2023-05-15T03:36:46;11.37;;;3.70;;
22030;SDS011;11179;52.106;21.024;2023-05-15T03:39:12;6.60;;;3.53;;
22030;SDS011;11179;52.106;21.024;2023-05-15T03:41:37;9.10;;;3.77;;
22030;SDS011;11179;52.106;21.024;2023-05-15T03:44:02;7.67;;;3.97;;
22030;SDS011;11179;52.106;21.024;2023-05-15T03:46:28;10.47;;;3.90;;
22030;SDS011;11179;52.106;21.024;2023-05-15T03:48:53;11.73;;;4.00;;
22030;SDS011;11179;52.106;21.024;2023-05-15T03:51:19;9.80;;;5.03;;
22030;SDS011;11179;52.106;21.024;2023-05-15T03:53:45;10.13;;;4.60;;
22030;SDS011;11179;52.106;21.024;2023-05-15T03:56:11;9.70;;;4.00;;
22030;SDS011;11179;52.106;21.024;2023-05-15T03:58:36;9.40;;;3.80;;
22030;SDS011;11179;52.106;21.024;2023-05-15T04:01:01;8.13;;;4.17;;
22030;SDS011;11179;52.106;21.024;2023-05-15T04:03:27;12.63;;;4.57;;
22030;SDS011;11179;52.106;21.024;2023-05-15T04:05:52;12.80;;;3.93;;
22030;SDS011;11179;52.106;21.024;2023-05-15T04:08:17;11.00;;;4.20;;
22030;SDS011;11179;52.106;21.024;2023-05-15T04:10:42;13.77;;;4.03;;
22030;SDS011;11179;52.106;21.024;2023-05-15T04:13:08;9.03;;;4.70;;
22030;SDS011;11179;52.106;21.024;2023-05-15T04:15:33;8.37;;;3.87;;
22030;SDS011;11179;52.106;21.024;2023-05-15T04:17:59;10.53;;;3.97;;
22030;SDS011;11179;52.106;21.024;2023-05-15T04:20:24;10.30;;;4.60;;
22030;SDS011;11179;52.106;21.024;2023-05-15T04:22:50;7.67;;;4.00;;
22030;SDS011;11179;52.106;21.024;2023-05-15T04:25:16;8.77;;;4.27;;
22030;SDS011;11179;52.106;21.024;2023-05-15T04:27:42;11.80;;;4.63;;
22030;SDS011;11179;52.106;21.024;2023-05-15T04:30:08;9.87;;;3.87;;
22030;SDS011;11179;52.106;21.024;2023-05-15T04:32:34;8.27;;;4.50;;
22030;SDS011;11179;52.106;21.024;2023-05-15T04:35:01;6.93;;;3.80;;
22030;SDS011;11179;52.106;21.024;2023-05-15T04:37:36;9.60;;;4.30;;
22030;SDS011;11179;52.106;21.024;2023-05-15T04:40:02;12.07;;;4.00;;
22030;SDS011;11179;52.106;21.024;2023-05-15T04:42:28;11.13;;;3.97;;
22030;SDS011;11179;52.106;21.024;2023-05-15T04:44:53;10.27;;;4.93;;
22030;SDS011;11179;52.106;21.024;2023-05-15T04:47:18;6.37;;;3.53;;
22030;SDS011;11179;52.106;21.024;2023-05-15T04:49:44;6.13;;;3.70;;
22030;SDS011;11179;52.106;21.024;2023-05-15T04:52:11;6.77;;;4.00;;
22030;SDS011;11179;52.106;21.024;2023-05-15T04:54:37;9.57;;;4.03;;
22030;SDS011;11179;52.106;21.024;2023-05-15T04:57:02;16.30;;;4.80;;
22030;SDS011;11179;52.106;21.024;2023-05-15T04:59:27;9.43;;;3.83;;
22030;SDS011;11179;52.106;21.024;2023-05-15T05:01:53;12.63;;;3.80;;
22030;SDS011;11179;52.106;21.024;2023-05-15T05:04:18;9.43;;;4.07;;
22030;SDS011;11179;52.106;21.024;2023-05-15T05:06:44;24.00;;;5.20;;
22030;SDS011;11179;52.106;21.024;2023-05-15T05:09:10;9.53;;;4.67;;
22030;SDS011;11179;52.106;21.024;2023-05-15T05:11:35;8.33;;;3.90;;
22030;SDS011;11179;52.106;21.024;2023-05-15T05:14:03;11.00;;;5.30;;
22030;SDS011;11179;52.106;21.024;2023-05-15T05:16:28;9.40;;;4.37;;
22030;SDS011;11179;52.106;21.024;2023-05-15T05:18:53;13.50;;;4.00;;
22030;SDS011;11179;52.106;21.024;2023-05-15T05:21:19;8.27;;;4.10;;
22030;SDS011;11179;52.106;21.024;2023-05-15T05:23:44;9.00;;;4.30;;
22030;SDS011;11179;52.106;21.024;2023-05-15T05:26:11;13.93;;;4.70;;
22030;SDS011;11179;52.106;21.024;2023-05-15T05:28:36;10.20;;;4.33;;
22030;SDS011;11179;52.106;21.024;2023-05-15T05:31:01;7.50;;;3.60;;
22030;SDS011;11179;52.106;21.024;2023-05-15T05:33:27;7.63;;;3.93;;
22030;SDS011;11179;52.106;21.024;2023-05-15T05:35:52;10.57;;;4.40;;
22030;SDS011;11179;52.106;21.024;2023-05-15T05:38:17;15.00;;;3.77;;
22030;SDS011;11179;52.106;21.024;2023-05-15T05:40:43;16.10;;;4.13;;
22030;SDS011;11179;52.106;21.024;2023-05-15T05:43:08;9.90;;;4.40;;
22030;SDS011;11179;52.106;21.024;2023-05-15T05:45:33;10.60;;;4.80;;
22030;SDS011;11179;52.106;21.024;2023-05-15T05:47:59;9.57;;;4.87;;
22030;SDS011;11179;52.106;21.024;2023-05-15T05:50:24;18.00;;;4.73;;
22030;SDS011;11179;52.106;21.024;2023-05-15T05:52:50;10.17;;;4.70;;
22030;SDS011;11179;52.106;21.024;2023-05-15T05:55:15;10.50;;;4.30;;
22030;SDS011;11179;52.106;21.024;2023-05-15T05:57:40;10.93;;;5.00;;
22030;SDS011;11179;52.106;21.024;2023-05-15T06:00:06;11.20;;;4.80;;
22030;SDS011;11179;52.106;21.024;2023-05-15T06:02:37;13.77;;;5.47;;
22030;SDS011;11179;52.106;21.024;2023-05-15T06:05:03;15.17;;;6.00;;
22030;SDS011;11179;52.106;21.024;2023-05-15T06:07:30;17.97;;;5.00;;
22030;SDS011;11179;52.106;21.024;2023-05-15T06:09:55;14.00;;;5.50;;
22030;SDS011;11179;52.106;21.024;2023-05-15T06:12:21;18.37;;;5.10;;
22030;SDS011;11179;52.106;21.024;2023-05-15T06:14:46;13.63;;;6.97;;
22030;SDS011;11179;52.106;21.024;2023-05-15T06:17:12;14.43;;;6.40;;
22030;SDS011;11179;52.106;21.024;2023-05-15T06:19:37;13.40;;;6.13;;
22030;SDS011;11179;52.106;21.024;2023-05-15T06:22:02;21.30;;;6.87;;
22030;SDS011;11179;52.106;21.024;2023-05-15T06:24:28;16.43;;;6.80;;
22030;SDS011;11179;52.106;21.024;2023-05-15T06:26:53;20.30;;;7.70;;
22030;SDS011;11179;52.106;21.024;2023-05-15T06:29:20;8.97;;;4.90;;
22030;SDS011;11179;52.106;21.024;2023-05-15T06:31:45;9.70;;;5.33;;
22030;SDS011;11179;52.106;21.024;2023-05-15T06:34:10;16.83;;;6.73;;
22030;SDS011;11179;52.106;21.024;2023-05-15T06:36:36;13.07;;;6.80;;
22030;SDS011;11179;52.106;21.024;2023-05-15T06:39:01;17.40;;;7.40;;
22030;SDS011;11179;52.106;21.024;2023-05-15T06:41:26;11.43;;;5.57;;
22030;SDS011;11179;52.106;21.024;2023-05-15T06:43:52;12.67;;;5.60;;
22030;SDS011;11179;52.106;21.024;2023-05-15T06:46:19;11.20;;;6.03;;
22030;SDS011;11179;52.106;21.024;2023-05-15T06:48:45;11.80;;;5.70;;
22030;SDS011;11179;52.106;21.024;2023-05-15T06:51:12;12.07;;;5.87;;
22030;SDS011;11179;52.106;21.024;2023-05-15T06:53:37;9.73;;;4.97;;
22030;SDS011;11179;52.106;21.024;2023-05-15T06:56:02;13.37;;;6.90;;
22030;SDS011;11179;52.106;21.024;2023-05-15T06:58:28;19.60;;;6.30;;
22030;SDS011;11179;52.106;21.024;2023-05-15T07:00:53;11.13;;;5.77;;
22030;SDS011;11179;52.106;21.024;2023-05-15T07:03:18;12.93;;;7.03;;
22030;SDS011;11179;52.106;21.024;2023-05-15T07:05:44;9.83;;;5.70;;
22030;SDS011;11179;52.106;21.024;2023-05-15T07:08:09;15.33;;;7.13;;
22030;SDS011;11179;52.106;21.024;2023-05-15T07:10:34;8.93;;;5.43;;
22030;SDS011;11179;52.106;21.024;2023-05-15T07:13:00;10.97;;;5.80;;
22030;SDS011;11179;52.106;21.024;2023-05-15T07:15:25;17.10;;;7.77;;
22030;SDS011;11179;52.106;21.024;2023-05-15T07:17:50;11.17;;;7.17;;
22030;SDS011;11179;52.106;21.024;2023-05-15T07:20:16;14.40;;;7.70;;
22030;SDS011;11179;52.106;21.024;2023-05-15T07:22:41;15.33;;;7.13;;
22030;SDS011;11179;52.106;21.024;2023-05-15T07:25:07;13.60;;;6.93;;
22030;SDS011;11179;52.106;21.024;2023-05-15T07:27:32;16.10;;;6.90;;
22030;SDS011;11179;52.106;21.024;2023-05-15T07:29:57;11.13;;;6.57;;
22030;SDS011;11179;52.106;21.024;2023-05-15T07:32:23;13.93;;;7.20;;
22030;SDS011;11179;52.106;21.024;2023-05-15T07:34:48;20.77;;;6.67;;
22030;SDS011;11179;52.106;21.024;2023-05-15T07:37:13;13.13;;;6.70;;
22030;SDS011;11179;52.106;21.024;2023-05-15T07:39:38;15.10;;;8.47;;
22030;SDS011;11179;52.106;21.024;2023-05-15T07:42:04;11.73;;;7.40;;
22030;SDS011;11179;52.106;21.024;2023-05-15T07:44:29;12.83;;;8.20;;
22030;SDS011;11179;52.106;21.024;2023-05-15T07:46:55;11.03;;;6.97;;
22030;SDS011;11179;52.106;21.024;2023-05-15T07:49:20;13.23;;;7.20;;
22030;SDS011;11179;52.106;21.024;2023-05-15T07:51:46;17.50;;;7.50;;
22030;SDS011;11179;52.106;21.024;2023-05-15T07:54:12;19.63;;;7.70;;
22030;SDS011;11179;52.106;21.024;2023-05-15T07:56:37;19.53;;;7.30;;
22030;SDS011;11179;52.106;21.024;2023-05-15T07:59:02;12.10;;;6.73;;
22030;SDS011;11179;52.106;21.024;2023-05-15T08:01:28;12.97;;;7.60;;
22030;SDS011;11179;52.106;21.024;2023-05-15T08:03:53;13.10;;;7.83;;
22030;SDS011;11179;52.106;21.024;2023-05-15T08:06:18;19.23;;;7.57;;
22030;SDS011;11179;52.106;21.024;2023-05-15T08:08:44;17.27;;;8.43;;
22030;SDS011;11179;52.106;21.024;2023-05-15T08:11:09;14.47;;;8.10;;
22030;SDS011;11179;52.106;21.024;2023-05-15T08:13:34;25.53;;;8.53;;
22030;SDS011;11179;52.106;21.024;2023-05-15T08:16:00;15.10;;;7.30;;
22030;SDS011;11179;52.106;21.024;2023-05-15T08:18:25;15.10;;;8.40;;
22030;SDS011;11179;52.106;21.024;2023-05-15T08:20:50;14.07;;;8.13;;
22030;SDS011;11179;52.106;21.024;2023-05-15T08:23:16;12.90;;;7.33;;
22030;SDS011;11179;52.106;21.024;2023-05-15T08:25:41;17.57;;;9.97;;
22030;SDS011;11179;52.106;21.024;2023-05-15T08:28:07;16.97;;;7.97;;
22030;SDS011;11179;52.106;21.024;2023-05-15T08:30:32;16.00;;;8.53;;
22030;SDS011;11179;52.106;21.024;2023-05-15T08:32:57;20.53;;;9.20;;
22030;SDS011;11179;52.106;21.024;2023-05-15T08:35:23;19.77;;;9.07;;
22030;SDS011;11179;52.106;21.024;2023-05-15T08:37:48;15.10;;;8.27;;
22030;SDS011;11179;52.106;21.024;2023-05-15T08:40:13;16.90;;;9.47;;
22030;SDS011;11179;52.106;21.024;2023-05-15T08:45:09;20.10;;;9.90;;
22030;SDS011;11179;52.106;21.024;2023-05-15T08:47:37;18.90;;;10.57;;
22030;SDS011;11179;52.106;21.024;2023-05-15T08:50:08;19.00;;;10.57;;
22030;SDS011;11179;52.106;21.024;2023-05-15T08:52:36;22.23;;;11.33;;
22030;SDS011;11179;52.106;21.024;2023-05-15T08:55:02;23.20;;;12.07;;
22030;SDS011;11179;52.106;21.024;2023-05-15T08:57:28;24.60;;;12.67;;
22030;SDS011;11179;52.106;21.024;2023-05-15T08:59:54;25.37;;;13.70;;
22030;SDS011;11179;52.106;21.024;2023-05-15T09:02:21;29.80;;;11.80;;
22030;SDS011;11179;52.106;21.024;2023-05-15T09:04:46;25.73;;;11.37;;
22030;SDS011;11179;52.106;21.024;2023-05-15T09:07:13;22.77;;;11.80;;
22030;SDS011;11179;52.106;21.024;2023-05-15T09:09:39;20.87;;;11.83;;
22030;SDS011;11179;52.106;21.024;2023-05-15T09:12:07;21.93;;;11.47;;
22030;SDS011;11179;52.106;21.024;2023-05-15T09:14:35;19.40;;;10.50;;
22030;SDS011;11179;52.106;21.024;2023-05-15T09:17:00;17.13;;;9.53;;
22030;SDS011;11179;52.106;21.024;2023-05-15T09:19:26;16.10;;;9.90;;
22030;SDS011;11179;52.106;21.024;2023-05-15T09:21:52;16.33;;;8.27;;
22030;SDS011;11179;52.106;21.024;2023-05-15T09:24:18;19.73;;;9.73;;
22030;SDS011;11179;52.106;21.024;2023-05-15T09:27:04;14.43;;;8.83;;
22030;SDS011;11179;52.106;21.024;2023-05-15T09:29:31;16.50;;;8.70;;
22030;SDS011;11179;52.106;21.024;2023-05-15T09:32:04;20.07;;;10.60;;
22030;SDS011;11179;52.106;21.024;2023-05-15T09:34:32;17.30;;;10.57;;
22030;SDS011;11179;52.106;21.024;2023-05-15T09:37:02;23.47;;;10.20;;
22030;SDS011;11179;52.106;21.024;2023-05-15T09:39:30;20.57;;;9.50;;
22030;SDS011;11179;52.106;21.024;2023-05-15T09:42:04;17.00;;;9.50;;
22030;SDS011;11179;52.106;21.024;2023-05-15T09:44:34;15.63;;;9.00;;
22030;SDS011;11179;52.106;21.024;2023-05-15T09:47:00;18.50;;;8.03;;
22030;SDS011;11179;52.106;21.024;2023-05-15T09:49:28;15.07;;;8.70;;
22030;SDS011;11179;52.106;21.024;2023-05-15T09:51:58;14.63;;;8.67;;
22030;SDS011;11179;52.106;21.024;2023-05-15T09:54:24;24.73;;;9.50;;
22030;SDS011;11179;52.106;21.024;2023-05-15T09:56:51;13.37;;;7.93;;
22030;SDS011;11179;52.106;21.024;2023-05-15T09:59:17;15.97;;;8.50;;
22030;SDS011;11179;52.106;21.024;2023-05-15T10:01:46;18.90;;;9.43;;
22030;SDS011;11179;52.106;21.024;2023-05-15T10:04:13;15.40;;;9.60;;
22030;SDS011;11179;52.106;21.024;2023-05-15T10:06:39;20.30;;;9.30;;
22030;SDS011;11179;52.106;21.024;2023-05-15T10:09:12;13.93;;;8.60;;
22030;SDS011;11179;52.106;21.024;2023-05-15T10:11:42;14.30;;;7.60;;
22030;SDS011;11179;52.106;21.024;2023-05-15T10:14:10;18.27;;;9.40;;
22030;SDS011;11179;52.106;21.024;2023-05-15T10:16:37;17.30;;;9.30;;
22030;SDS011;11179;52.106;21.024;2023-05-15T10:19:04;16.30;;;9.57;;
22030;SDS011;11179;52.106;21.024;2023-05-15T10:21:31;17.13;;;9.03;;
22030;SDS011;11179;52.106;21.024;2023-05-15T10:23:59;15.77;;;9.03;;
22030;SDS011;11179;52.106;21.024;2023-05-15T10:26:30;17.00;;;9.93;;
22030;SDS011;11179;52.106;21.024;2023-05-15T10:29:00;14.57;;;9.70;;
22030;SDS011;11179;52.106;21.024;2023-05-15T10:31:26;16.17;;;8.83;;
22030;SDS011;11179;52.106;21.024;2023-05-15T10:33:54;20.60;;;9.83;;
22030;SDS011;11179;52.106;21.024;2023-05-15T10:36:19;20.67;;;9.80;;
22030;SDS011;11179;52.106;21.024;2023-05-15T10:38:45;24.17;;;10.83;;
22030;SDS011;11179;52.106;21.024;2023-05-15T10:41:12;28.90;;;12.40;;
22030;SDS011;11179;52.106;21.024;2023-05-15T10:43:40;21.50;;;10.60;;
22030;SDS011;11179;52.106;21.024;2023-05-15T10:46:06;20.10;;;10.43;;
22030;SDS011;11179;52.106;21.024;2023-05-15T10:48:32;22.40;;;10.13;;
22030;SDS011;11179;52.106;21.024;2023-05-15T10:50:59;20.20;;;10.03;;
22030;SDS011;11179;52.106;21.024;2023-05-15T10:53:25;16.40;;;9.97;;
22030;SDS011;11179;52.106;21.024;2023-05-15T10:55:51;15.27;;;9.90;;
22030;SDS011;11179;52.106;21.024;2023-05-15T10:58:20;17.90;;;10.67;;
22030;SDS011;11179;52.106;21.024;2023-05-15T11:00:46;15.10;;;8.93;;
22030;SDS011;11179;52.106;21.024;2023-05-15T11:03:12;17.20;;;10.40;;
22030;SDS011;11179;52.106;21.024;2023-05-15T11:06:05;18.07;;;9.93;;
22030;SDS011;11179;52.106;21.024;2023-05-15T11:08:40;18.00;;;10.63;;
22030;SDS011;11179;52.106;21.024;2023-05-15T11:11:07;17.10;;;8.80;;
22030;SDS011;11179;52.106;21.024;2023-05-15T11:22:18;13.30;;;9.00;;
22030;SDS011;11179;52.106;21.024;2023-05-15T11:25:07;15.33;;;8.77;;
22030;SDS011;11179;52.106;21.024;2023-05-15T11:27:38;20.40;;;9.37;;
22030;SDS011;11179;52.106;21.024;2023-05-15T11:32:43;15.60;;;9.03;;
22030;SDS011;11179;52.106;21.024;2023-05-15T11:35:17;15.20;;;8.83;;
22030;SDS011;11179;52.106;21.024;2023-05-15T11:37:51;11.60;;;8.20;;
22030;SDS011;11179;52.106;21.024;2023-05-15T11:41:11;18.07;;;9.80;;
22030;SDS011;11179;52.106;21.024;2023-05-15T11:45:45;14.60;;;8.70;;
22030;SDS011;11179;52.106;21.024;2023-05-15T11:48:15;16.33;;;9.43;;
22030;SDS011;11179;52.106;21.024;2023-05-15T11:50:41;13.30;;;7.97;;
22030;SDS011;11179;52.106;21.024;2023-05-15T11:53:08;15.47;;;9.83;;
22030;SDS011;11179;52.106;21.024;2023-05-15T11:55:39;14.63;;;9.10;;
22030;SDS011;11179;52.106;21.024;2023-05-15T11:58:14;14.47;;;9.40;;
22030;SDS011;11179;52.106;21.024;2023-05-15T12:00:41;14.40;;;9.70;;
22030;SDS011;11179;52.106;21.024;2023-05-15T12:03:14;13.67;;;9.20;;
22030;SDS011;11179;52.106;21.024;2023-05-15T12:05:41;13.37;;;9.07;;
22030;SDS011;11179;52.106;21.024;2023-05-15T12:08:10;15.53;;;9.13;;
22030;SDS011;11179;52.106;21.024;2023-05-15T12:10:43;14.87;;;9.83;;
22030;SDS011;11179;52.106;21.024;2023-05-15T12:13:09;14.80;;;9.57;;
22030;SDS011;11179;52.106;21.024;2023-05-15T12:15:40;14.57;;;9.73;;
22030;SDS011;11179;52.106;21.024;2023-05-15T12:18:07;13.70;;;9.10;;
22030;SDS011;11179;52.106;21.024;2023-05-15T12:20:33;15.90;;;8.90;;
22030;SDS011;11179;52.106;21.024;2023-05-15T12:23:00;14.00;;;9.10;;
22030;SDS011;11179;52.106;21.024;2023-05-15T12:25:27;14.23;;;8.97;;
22030;SDS011;11179;52.106;21.024;2023-05-15T12:27:53;13.77;;;9.50;;
22030;SDS011;11179;52.106;21.024;2023-05-15T12:30:19;14.63;;;9.00;;
22030;SDS011;11179;52.106;21.024;2023-05-15T12:32:45;12.50;;;8.50;;
22030;SDS011;11179;52.106;21.024;2023-05-15T12:35:10;13.90;;;8.90;;
22030;SDS011;11179;52.106;21.024;2023-05-15T12:37:36;16.13;;;9.10;;
22030;SDS011;11179;52.106;21.024;2023-05-15T12:40:03;15.43;;;9.20;;
22030;SDS011;11179;52.106;21.024;2023-05-15T12:42:37;11.77;;;8.83;;
22030;SDS011;11179;52.106;21.024;2023-05-15T12:45:10;14.23;;;9.67;;
22030;SDS011;11179;52.106;21.024;2023-05-15T12:47:36;16.87;;;9.50;;
22030;SDS011;11179;52.106;21.024;2023-05-15T12:50:02;14.00;;;9.77;;
22030;SDS011;11179;52.106;21.024;2023-05-15T12:52:36;16.30;;;9.80;;
22030;SDS011;11179;52.106;21.024;2023-05-15T12:55:02;13.47;;;9.60;;
22030;SDS011;11179;52.106;21.024;2023-05-15T12:57:27;20.27;;;10.40;;
22030;SDS011;11179;52.106;21.024;2023-05-15T12:59:53;16.70;;;9.90;;
22030;SDS011;11179;52.106;21.024;2023-05-15T13:02:19;15.20;;;9.13;;
22030;SDS011;11179;52.106;21.024;2023-05-15T13:04:45;14.10;;;8.87;;
22030;SDS011;11179;52.106;21.024;2023-05-15T13:07:13;14.63;;;10.30;;
22030;SDS011;11179;52.106;21.024;2023-05-15T13:09:40;17.00;;;10.83;;
22030;SDS011;11179;52.106;21.024;2023-05-15T13:12:06;16.57;;;10.90;;
22030;SDS011;11179;52.106;21.024;2023-05-15T13:14:31;13.17;;;7.50;;
22030;SDS011;11179;52.106;21.024;2023-05-15T13:16:58;18.10;;;10.40;;
22030;SDS011;11179;52.106;21.024;2023-05-15T13:19:26;16.37;;;11.03;;
22030;SDS011;11179;52.106;21.024;2023-05-15T13:21:52;14.43;;;10.10;;
22030;SDS011;11179;52.106;21.024;2023-05-15T13:24:18;17.70;;;9.87;;
22030;SDS011;11179;52.106;21.024;2023-05-15T13:26:43;17.67;;;11.63;;
22030;SDS011;11179;52.106;21.024;2023-05-15T13:29:08;15.73;;;10.30;;
22030;SDS011;11179;52.106;21.024;2023-05-15T13:31:34;16.03;;;10.77;;
22030;SDS011;11179;52.106;21.024;2023-05-15T13:33:59;15.47;;;10.23;;
22030;SDS011;11179;52.106;21.024;2023-05-15T13:36:24;15.20;;;11.13;;
22030;SDS011;11179;52.106;21.024;2023-05-15T13:38:50;18.47;;;11.20;;
22030;SDS011;11179;52.106;21.024;2023-05-15T13:41:15;19.70;;;11.20;;
22030;SDS011;11179;52.106;21.024;2023-05-15T13:43:40;16.33;;;10.37;;
22030;SDS011;11179;52.106;21.024;2023-05-15T13:46:06;17.03;;;10.70;;
22030;SDS011;11179;52.106;21.024;2023-05-15T13:48:31;16.20;;;10.00;;
22030;SDS011;11179;52.106;21.024;2023-05-15T13:50:56;14.10;;;10.10;;
22030;SDS011;11179;52.106;21.024;2023-05-15T13:53:22;16.67;;;11.10;;
22030;SDS011;11179;52.106;21.024;2023-05-15T13:55:47;19.60;;;11.33;;
22030;SDS011;11179;52.106;21.024;2023-05-15T13:58:12;17.10;;;11.07;;
22030;SDS011;11179;52.106;21.024;2023-05-15T14:00:38;18.43;;;11.10;;
22030;SDS011;11179;52.106;21.024;2023-05-15T14:03:06;14.47;;;9.30;;
22030;SDS011;11179;52.106;21.024;2023-05-15T14:05:31;17.73;;;9.83;;
22030;SDS011;11179;52.106;21.024;2023-05-15T14:07:57;15.37;;;9.80;;
22030;SDS011;11179;52.106;21.024;2023-05-15T14:10:22;19.60;;;10.97;;
22030;SDS011;11179;52.106;21.024;2023-05-15T14:12:48;19.93;;;10.23;;
22030;SDS011;11179;52.106;21.024;2023-05-15T14:15:14;14.77;;;9.60;;
22030;SDS011;11179;52.106;21.024;2023-05-15T14:17:40;18.93;;;10.30;;
22030;SDS011;11179;52.106;21.024;2023-05-15T14:20:05;16.73;;;10.27;;
22030;SDS011;11179;52.106;21.024;2023-05-15T14:22:31;15.47;;;10.30;;
22030;SDS011;11179;52.106;21.024;2023-05-15T14:24:57;17.50;;;10.23;;
22030;SDS011;11179;52.106;21.024;2023-05-15T14:27:22;18.20;;;9.97;;
22030;SDS011;11179;52.106;21.024;2023-05-15T14:29:47;18.37;;;11.03;;
22030;SDS011;11179;52.106;21.024;2023-05-15T14:32:13;16.93;;;10.93;;
22030;SDS011;11179;52.106;21.024;2023-05-15T14:34:38;16.60;;;10.20;;
22030;SDS011;11179;52.106;21.024;2023-05-15T14:37:04;19.47;;;10.93;;
22030;SDS011;11179;52.106;21.024;2023-05-15T14:39:29;18.00;;;11.37;;
22030;SDS011;11179;52.106;21.024;2023-05-15T14:41:54;14.80;;;9.60;;
22030;SDS011;11179;52.106;21.024;2023-05-15T14:44:20;18.37;;;9.90;;
22030;SDS011;11179;52.106;21.024;2023-05-15T14:46:45;17.50;;;10.47;;